createdAt,value
2023-03-02T00:04:38.957Z,101255.38
2023-03-02T00:09:43.181Z,101247.88
2023-03-02T00:14:46.398Z,101235.97
2023-03-02T00:19:51.063Z,101242.16
2023-03-02T00:24:54.259Z,101230.28
2023-03-02T00:29:57.552Z,101230.41
2023-03-02T00:35:02.231Z,101228.78
2023-03-02T00:40:07.493Z,101226.38
2023-03-02T00:45:11.384Z,101225.59
2023-03-02T00:50:16.078Z,101219.66
2023-03-02T00:55:19.288Z,101222.28
2023-03-02T01:00:23.281Z,101224.03
2023-03-02T01:05:28.017Z,101211.16
2023-03-02T01:10:32.845Z,101210.38
2023-03-02T01:15:36.428Z,101204.38
2023-03-02T01:20:41.137Z,101193.28
2023-03-02T01:25:44.307Z,101198.50
2023-03-02T01:30:48.978Z,101190.78
2023-03-02T01:35:53.715Z,101179.75
2023-03-02T01:40:57.663Z,101180.91
2023-03-02T01:46:04.108Z,101179.38
2023-03-02T01:51:10.584Z,101178.63
2023-03-02T01:56:17.173Z,101180.34
2023-03-02T02:01:20.549Z,101176.19
2023-03-02T02:06:27.584Z,101179.72
2023-03-02T02:11:31.507Z,101178.09
2023-03-02T02:16:36.547Z,101168.81
2023-03-02T02:21:41.259Z,101163.84
2023-03-02T02:26:49.590Z,101160.53
2023-03-02T02:31:57.565Z,101156.38
2023-03-02T02:37:07.507Z,101154.75
2023-03-02T02:42:16.608Z,101152.31
2023-03-02T02:47:24.442Z,101148.84
2023-03-02T02:52:29.478Z,101140.34
2023-03-02T02:57:34.127Z,101148.00
2023-03-02T03:02:45.613Z,101141.97
2023-03-02T03:07:48.736Z,101136.03
2023-03-02T03:12:53.730Z,101135.09
2023-03-02T03:17:57.637Z,101142.81
2023-03-02T03:23:00.956Z,101146.31
2023-03-02T03:28:05.869Z,101137.81
2023-03-02T03:33:11.550Z,101135.38
2023-03-02T03:38:14.980Z,101134.53
2023-03-02T03:43:19.569Z,101137.13
2023-03-02T03:48:22.805Z,101130.28
2023-03-02T03:53:26.852Z,101131.19
2023-03-02T03:58:31.999Z,101127.84
2023-03-02T04:03:35.556Z,101127.06
2023-03-02T04:08:38.840Z,101127.19
2023-03-02T04:13:43.692Z,101116.94
2023-03-02T04:18:47.068Z,101116.94
2023-03-02T04:23:50.245Z,101114.50
2023-03-02T04:28:54.910Z,101113.66
2023-03-02T04:33:58.379Z,101115.41
2023-03-02T04:39:02.134Z,101121.47
2023-03-02T04:44:17.919Z,101120.63
2023-03-02T04:49:21.906Z,101120.63
2023-03-02T04:54:27.321Z,101128.41
2023-03-02T04:59:32.125Z,101131.94
2023-03-02T05:04:40.565Z,101123.44
2023-03-02T05:09:44.181Z,101130.41
2023-03-02T05:14:50.386Z,101126.25
2023-03-02T05:19:54.655Z,101130.59
2023-03-02T05:25:00.419Z,101131.50
2023-03-02T05:30:06.401Z,101126.53
2023-03-02T05:35:10.498Z,101120.69
2023-03-02T05:40:16.443Z,101128.53
2023-03-02T05:45:24.606Z,101122.69
2023-03-02T05:50:27.972Z,101126.06
2023-03-02T05:55:31.630Z,101133.00
2023-03-02T06:00:36.675Z,101136.41
2023-03-02T06:05:44.684Z,101131.31
2023-03-02T06:10:50.869Z,101139.00
2023-03-02T06:15:55.975Z,101139.78
2023-03-02T06:20:59.863Z,101136.28
2023-03-02T06:26:11.924Z,101149.78
2023-03-02T06:31:16.637Z,101148.00
2023-03-02T06:36:23.445Z,101150.38
2023-03-02T06:41:26.770Z,101150.16
2023-03-02T06:46:37.159Z,101150.75
2023-03-02T06:51:40.742Z,101150.59
2023-03-02T06:56:43.988Z,101148.59
2023-03-02T07:01:50.616Z,101142.28
2023-03-02T07:06:53.929Z,101142.06
2023-03-02T07:12:06.665Z,101151.06
2023-03-02T07:17:11.392Z,101149.88
2023-03-02T07:22:14.655Z,101136.53
2023-03-02T07:27:17.920Z,101136.75
2023-03-02T07:32:23.003Z,101134.53
2023-03-02T07:37:26.294Z,101126.03
2023-03-02T07:42:29.681Z,101118.53
2023-03-02T07:47:34.699Z,101116.06
2023-03-02T07:52:38.600Z,101120.34
2023-03-02T07:57:41.722Z,101134.56
2023-03-02T08:02:46.409Z,101131.03
2023-03-02T08:07:50.058Z,101136.31
2023-03-02T08:12:53.780Z,101135.75
2023-03-02T08:17:58.185Z,101124.56
2023-03-02T08:23:02.725Z,101126.31
2023-03-02T08:28:05.835Z,101125.81
2023-03-02T08:33:10.496Z,101119.88
2023-03-02T08:38:13.623Z,101114.50
2023-03-02T08:43:16.959Z,101119.94
2023-03-02T08:48:22.043Z,101125.31
2023-03-02T08:53:25.700Z,101119.00
2023-03-02T08:58:29.415Z,101105.75
2023-03-02T09:03:33.899Z,101104.94
2023-03-02T09:08:37.702Z,101096.97
2023-03-02T09:13:40.897Z,101086.84
2023-03-02T09:18:46.534Z,101095.94
2023-03-02T09:23:53.750Z,101090.56
2023-03-02T09:28:57.403Z,101089.13
2023-03-02T09:34:02.073Z,101083.50
2023-03-02T09:39:09.624Z,101080.69
2023-03-02T09:44:27.921Z,101081.53
2023-03-02T09:49:53.834Z,101091.41
2023-03-02T09:55:01.755Z,101084.69
2023-03-02T10:00:18.686Z,101088.19
2023-03-02T10:05:26.395Z,101096.34
2023-03-02T10:10:38.762Z,101091.03
2023-03-02T10:15:50.258Z,101098.66
2023-03-02T10:21:00.350Z,101094.78
2023-03-02T10:26:15.925Z,101078.78
2023-03-02T10:31:27.710Z,101082.94
2023-03-02T10:36:38.672Z,101085.72
2023-03-02T10:41:47.269Z,101073.28
2023-03-02T10:46:51.388Z,101076.56
2023-03-02T10:52:01.327Z,101070.47
2023-03-02T10:57:06.984Z,101071.31
2023-03-02T11:02:29.529Z,101061.03
2023-03-02T11:07:34.144Z,101051.94
2023-03-02T11:12:38.823Z,101039.84
2023-03-02T11:17:45.675Z,101034.41
2023-03-02T11:22:58.077Z,101044.59
2023-03-02T11:28:07.000Z,101021.31
2023-03-02T11:33:25.601Z,101012.31
2023-03-02T11:38:35.648Z,101009.75
2023-03-02T11:43:39.574Z,101006.44
2023-03-02T11:48:47.374Z,100992.06
2023-03-02T11:53:57.038Z,100983.41
2023-03-02T11:59:04.992Z,100981.31
2023-03-02T12:04:10.655Z,100981.19
2023-03-02T12:09:35.829Z,100979.00
2023-03-02T12:14:42.735Z,100975.44
2023-03-02T12:19:46.536Z,100975.66
2023-03-02T12:25:03.789Z,100953.59
2023-03-02T12:30:26.282Z,100951.75
2023-03-02T12:35:31.919Z,100950.91
2023-03-02T12:40:54.172Z,100937.94
2023-03-02T12:46:26.296Z,100923.84
2023-03-02T12:51:31.824Z,100916.72
2023-03-02T12:56:36.744Z,100923.63
2023-03-02T13:01:40.193Z,100911.19
2023-03-02T13:06:43.460Z,100908.31
2023-03-02T13:11:49.844Z,100894.31
2023-03-02T13:16:58.700Z,100886.75
2023-03-02T13:22:02.184Z,100887.81
2023-03-02T13:27:09.531Z,100892.31
2023-03-02T13:32:18.866Z,100882.91
2023-03-02T13:37:28.968Z,100870.47
2023-03-02T13:42:39.745Z,100868.22
2023-03-02T13:47:44.715Z,100862.66
2023-03-02T13:52:48.004Z,100870.63
2023-03-02T13:57:53.865Z,100865.41
2023-03-02T14:02:57.243Z,100851.41
2023-03-02T14:08:00.690Z,100842.94
2023-03-02T14:13:08.582Z,100839.47
2023-03-02T14:18:27.211Z,100828.00
2023-03-02T14:23:30.543Z,100821.09
2023-03-02T14:28:36.532Z,100820.09
2023-03-02T14:33:39.656Z,100812.16
2023-03-02T14:38:43.082Z,100802.84
2023-03-02T14:43:47.716Z,100805.56
2023-03-02T14:48:51.041Z,100800.66
2023-03-02T14:53:57.043Z,100802.13
2023-03-02T14:59:01.905Z,100798.66
2023-03-02T15:04:05.222Z,100785.34
2023-03-02T15:09:09.058Z,100794.22
2023-03-02T15:14:13.823Z,100791.00
2023-03-02T15:19:16.963Z,100790.28
2023-03-02T15:24:22.233Z,100788.22
2023-03-02T15:29:27.263Z,100792.63
2023-03-02T15:34:30.459Z,100793.88
2023-03-02T15:39:34.098Z,100799.75
2023-03-02T15:44:38.810Z,100781.59
2023-03-02T15:49:41.933Z,100794.16
2023-03-02T15:54:45.226Z,100798.84
2023-03-02T15:59:50.012Z,100787.81
2023-03-02T16:04:54.207Z,100793.56
2023-03-02T16:09:57.433Z,100795.03
2023-03-02T16:15:01.956Z,100785.13
2023-03-02T16:20:05.607Z,100793.56
2023-03-02T16:25:09.566Z,100796.84
2023-03-02T16:30:15.775Z,100801.50
2023-03-02T16:35:19.828Z,100797.88
2023-03-02T16:40:23.827Z,100808.59
2023-03-02T16:45:28.416Z,100809.22
2023-03-02T16:50:31.763Z,100809.00
2023-03-02T16:55:35.132Z,100802.75
2023-03-02T17:00:39.914Z,100812.09
2023-03-02T17:05:43.621Z,100825.81
2023-03-02T17:10:46.745Z,100834.59
2023-03-02T17:15:54.828Z,100836.25
2023-03-02T17:20:59.768Z,100852.91
2023-03-02T17:26:03.958Z,100849.94
2023-03-02T17:31:08.712Z,100854.25
2023-03-02T17:36:12.402Z,100860.97
2023-03-02T17:41:15.531Z,100875.28
2023-03-02T17:46:23.580Z,100889.38
2023-03-02T17:51:28.247Z,100887.81
2023-03-02T17:56:32.826Z,100885.63
2023-03-02T18:01:37.590Z,100903.66
2023-03-02T18:06:40.991Z,100908.88
2023-03-02T18:11:45.205Z,100915.03
2023-03-02T18:16:49.778Z,100916.03
2023-03-02T18:21:53.710Z,100921.16
2023-03-02T18:26:57.664Z,100926.09
2023-03-02T18:32:02.237Z,100938.81
2023-03-02T18:37:05.622Z,100940.47
2023-03-02T18:42:10.523Z,100945.53
2023-03-02T18:47:19.115Z,100959.03
2023-03-02T18:52:29.280Z,100947.59
2023-03-02T18:57:34.083Z,100951.53
2023-03-02T19:02:39.178Z,100955.28
2023-03-02T19:07:42.988Z,100959.97
2023-03-02T19:12:46.447Z,100964.44
2023-03-02T19:17:52.283Z,100966.44
2023-03-02T19:22:55.883Z,100977.13
2023-03-02T19:27:59.086Z,100977.47
2023-03-02T19:33:06.075Z,100986.53
2023-03-02T19:38:10.734Z,100980.09
2023-03-02T19:43:14.660Z,100986.44
2023-03-02T19:48:19.331Z,101000.44
2023-03-02T19:53:23.771Z,101002.53
2023-03-02T19:58:28.469Z,101008.22
2023-03-02T20:03:34.090Z,101006.22
2023-03-02T20:08:37.237Z,101008.25
2023-03-02T20:13:41.294Z,101005.34
2023-03-02T20:18:46.001Z,101002.41
2023-03-02T20:23:50.193Z,101001.03
2023-03-02T20:28:55.648Z,101004.34
2023-03-02T20:34:00.509Z,100991.66
2023-03-02T20:39:09.292Z,101002.09
2023-03-02T20:44:14.804Z,100999.59
2023-03-02T20:49:22.082Z,101003.00
2023-03-02T20:54:27.660Z,101009.69
2023-03-02T20:59:31.229Z,101001.94
2023-03-02T21:04:36.730Z,101010.44
2023-03-02T21:09:40.408Z,101004.56
2023-03-02T21:14:43.797Z,101013.00
2023-03-02T21:19:48.260Z,101014.53
2023-03-02T21:24:52.947Z,101018.84
2023-03-02T21:29:56.509Z,101015.13
2023-03-02T21:35:02.938Z,101018.41
2023-03-02T21:40:08.284Z,101019.22
2023-03-02T21:45:13.521Z,101020.34
2023-03-02T21:50:23.111Z,101011.59
2023-03-02T21:55:27.368Z,101017.53
2023-03-02T22:00:33.745Z,101024.25
2023-03-02T22:05:39.256Z,101025.22
2023-03-02T22:10:45.401Z,101016.75
2023-03-02T22:15:51.080Z,101016.69
2023-03-02T22:20:58.807Z,101012.13
2023-03-02T22:26:14.252Z,101007.69
2023-03-02T22:31:21.632Z,101002.63
2023-03-02T22:36:26.889Z,101007.56
2023-03-02T22:41:30.512Z,101003.47
2023-03-02T22:46:37.110Z,101010.75
2023-03-02T22:51:41.726Z,101005.63
2023-03-02T22:56:48.142Z,101007.63
2023-03-02T23:01:52.497Z,101019.03
2023-03-02T23:07:00.118Z,101014.59
2023-03-02T23:12:10.878Z,101018.25
2023-03-02T23:17:19.899Z,101027.66
2023-03-02T23:22:28.594Z,101027.66
2023-03-02T23:27:31.802Z,101027.00
2023-03-02T23:32:35.255Z,101012.25
2023-03-02T23:37:40.276Z,101014.06
2023-03-02T23:42:43.363Z,101013.09
2023-03-02T23:47:46.560Z,101014.28
2023-03-02T23:52:51.140Z,101011.06
2023-03-02T23:57:54.324Z,101010.28
